sensor_id;sensor_type;location;lat;lon;timestamp;P1;durP1;ratioP1;P2;durP2;ratioP2
43142;SDS011;28750;59.842;17.584;2022-09-09T00:01:47;3.38;;;2.80;;
43142;SDS011;28750;59.842;17.584;2022-09-09T00:09:39;4.45;;;2.83;;
43142;SDS011;28750;59.842;17.584;2022-09-09T00:12:19;4.80;;;2.70;;
43142;SDS011;28750;59.842;17.584;2022-09-09T00:14:50;2.63;;;2.42;;
43142;SDS011;28750;59.842;17.584;2022-09-09T00:20:11;4.85;;;2.80;;
43142;SDS011;28750;59.842;17.584;2022-09-09T00:22:43;3.10;;;2.80;;
43142;SDS011;28750;59.842;17.584;2022-09-09T00:25:23;3.30;;;2.70;;
43142;SDS011;28750;59.842;17.584;2022-09-09T00:28:02;2.70;;;2.47;;
43142;SDS011;28750;59.842;17.584;2022-09-09T00:30:35;3.20;;;2.90;;
43142;SDS011;28750;59.842;17.584;2022-09-09T00:33:10;8.02;;;2.75;;
43142;SDS011;28750;59.842;17.584;2022-09-09T00:35:42;4.50;;;2.75;;
43142;SDS011;28750;59.842;17.584;2022-09-09T00:38:19;3.13;;;2.33;;
43142;SDS011;28750;59.842;17.584;2022-09-09T00:44:13;2.83;;;2.63;;
43142;SDS011;28750;59.842;17.584;2022-09-09T00:46:50;3.53;;;2.53;;
43142;SDS011;28750;59.842;17.584;2022-09-09T00:52:32;2.78;;;2.45;;
43142;SDS011;28750;59.842;17.584;2022-09-09T00:57:51;3.40;;;2.47;;
43142;SDS011;28750;59.842;17.584;2022-09-09T01:00:20;3.03;;;2.35;;
43142;SDS011;28750;59.842;17.584;2022-09-09T01:05:42;5.20;;;2.33;;
43142;SDS011;28750;59.842;17.584;2022-09-09T01:09:02;2.65;;;2.38;;
43142;SDS011;28750;59.842;17.584;2022-09-09T01:11:03;2.50;;;2.30;;
43142;SDS011;28750;59.842;17.584;2022-09-09T01:13:34;2.60;;;2.40;;
43142;SDS011;28750;59.842;17.584;2022-09-09T01:16:03;3.03;;;2.30;;
43142;SDS011;28750;59.842;17.584;2022-09-09T01:18:44;4.55;;;2.38;;
43142;SDS011;28750;59.842;17.584;2022-09-09T01:24:25;2.90;;;2.50;;
43142;SDS011;28750;59.842;17.584;2022-09-09T01:27:02;5.20;;;2.60;;
43142;SDS011;28750;59.842;17.584;2022-09-09T01:29:31;4.20;;;2.60;;
43142;SDS011;28750;59.842;17.584;2022-09-09T01:32:35;2.78;;;2.50;;
43142;SDS011;28750;59.842;17.584;2022-09-09T01:35:08;3.00;;;2.25;;
43142;SDS011;28750;59.842;17.584;2022-09-09T01:37:56;2.70;;;2.42;;
43142;SDS011;28750;59.842;17.584;2022-09-09T01:40:23;2.28;;;2.17;;
43142;SDS011;28750;59.842;17.584;2022-09-09T01:42:51;2.78;;;2.58;;
43142;SDS011;28750;59.842;17.584;2022-09-09T01:45:19;2.42;;;2.22;;
43142;SDS011;28750;59.842;17.584;2022-09-09T01:47:47;2.55;;;2.35;;
43142;SDS011;28750;59.842;17.584;2022-09-09T01:50:15;2.78;;;2.35;;
43142;SDS011;28750;59.842;17.584;2022-09-09T01:52:43;3.65;;;2.25;;
43142;SDS011;28750;59.842;17.584;2022-09-09T01:55:13;2.13;;;2.03;;
43142;SDS011;28750;59.842;17.584;2022-09-09T01:57:49;2.33;;;2.10;;
43142;SDS011;28750;59.842;17.584;2022-09-09T02:00:24;2.20;;;1.92;;
43142;SDS011;28750;59.842;17.584;2022-09-09T02:03:05;2.50;;;2.30;;
43142;SDS011;28750;59.842;17.584;2022-09-09T02:08:39;3.47;;;2.00;;
43142;SDS011;28750;59.842;17.584;2022-09-09T02:11:21;4.17;;;2.20;;
43142;SDS011;28750;59.842;17.584;2022-09-09T02:14:15;3.28;;;2.05;;
43142;SDS011;28750;59.842;17.584;2022-09-09T02:16:48;4.03;;;2.38;;
43142;SDS011;28750;59.842;17.584;2022-09-09T02:21:55;5.97;;;1.92;;
43142;SDS011;28750;59.842;17.584;2022-09-09T02:24:24;3.25;;;1.88;;
43142;SDS011;28750;59.842;17.584;2022-09-09T02:26:53;2.20;;;1.70;;
43142;SDS011;28750;59.842;17.584;2022-09-09T02:29:23;2.20;;;2.00;;
43142;SDS011;28750;59.842;17.584;2022-09-09T02:31:57;1.88;;;1.77;;
43142;SDS011;28750;59.842;17.584;2022-09-09T02:34:29;2.65;;;1.70;;
43142;SDS011;28750;59.842;17.584;2022-09-09T02:37:01;3.28;;;2.00;;
43142;SDS011;28750;59.842;17.584;2022-09-09T02:39:30;2.45;;;2.13;;
43142;SDS011;28750;59.842;17.584;2022-09-09T02:41:57;1.75;;;1.65;;
43142;SDS011;28750;59.842;17.584;2022-09-09T02:44:24;2.75;;;2.15;;
43142;SDS011;28750;59.842;17.584;2022-09-09T02:52:38;1.95;;;1.58;;
43142;SDS011;28750;59.842;17.584;2022-09-09T02:55:16;1.60;;;1.50;;
43142;SDS011;28750;59.842;17.584;2022-09-09T02:57:50;2.45;;;1.90;;
43142;SDS011;28750;59.842;17.584;2022-09-09T03:00:27;1.77;;;1.65;;
43142;SDS011;28750;59.842;17.584;2022-09-09T03:02:54;1.75;;;1.65;;
43142;SDS011;28750;59.842;17.584;2022-09-09T03:05:22;2.22;;;1.50;;
43142;SDS011;28750;59.842;17.584;2022-09-09T03:07:49;2.03;;;1.55;;
43142;SDS011;28750;59.842;17.584;2022-09-09T03:10:16;1.77;;;1.67;;
43142;SDS011;28750;59.842;17.584;2022-09-09T03:12:43;1.88;;;1.52;;
43142;SDS011;28750;59.842;17.584;2022-09-09T03:15:10;1.58;;;1.27;;
43142;SDS011;28750;59.842;17.584;2022-09-09T03:17:37;2.15;;;1.30;;
43142;SDS011;28750;59.842;17.584;2022-09-09T03:20:04;1.30;;;1.30;;
43142;SDS011;28750;59.842;17.584;2022-09-09T03:22:32;2.92;;;1.40;;
43142;SDS011;28750;59.842;17.584;2022-09-09T03:24:59;1.83;;;1.40;;
43142;SDS011;28750;59.842;17.584;2022-09-09T03:27:26;1.85;;;1.30;;
43142;SDS011;28750;59.842;17.584;2022-09-09T03:29:53;1.42;;;1.30;;
43142;SDS011;28750;59.842;17.584;2022-09-09T03:32:20;1.70;;;1.58;;
43142;SDS011;28750;59.842;17.584;2022-09-09T03:34:50;2.45;;;1.40;;
43142;SDS011;28750;59.842;17.584;2022-09-09T03:37:19;1.30;;;1.20;;
43142;SDS011;28750;59.842;17.584;2022-09-09T03:39:46;2.08;;;1.40;;
43142;SDS011;28750;59.842;17.584;2022-09-09T03:42:13;3.13;;;1.42;;
43142;SDS011;28750;59.842;17.584;2022-09-09T03:44:44;2.15;;;1.50;;
43142;SDS011;28750;59.842;17.584;2022-09-09T03:47:15;2.20;;;1.65;;
43142;SDS011;28750;59.842;17.584;2022-09-09T03:49:48;1.40;;;1.30;;
43142;SDS011;28750;59.842;17.584;2022-09-09T03:52:15;1.48;;;1.38;;
43142;SDS011;28750;59.842;17.584;2022-09-09T03:54:43;1.60;;;1.50;;
43142;SDS011;28750;59.842;17.584;2022-09-09T03:57:10;1.55;;;1.45;;
43142;SDS011;28750;59.842;17.584;2022-09-09T03:59:40;1.80;;;1.48;;
43142;SDS011;28750;59.842;17.584;2022-09-09T04:02:07;2.60;;;1.42;;
43142;SDS011;28750;59.842;17.584;2022-09-09T04:04:34;1.80;;;1.55;;
43142;SDS011;28750;59.842;17.584;2022-09-09T04:07:01;3.05;;;1.48;;
43142;SDS011;28750;59.842;17.584;2022-09-09T04:09:28;2.78;;;1.63;;
43142;SDS011;28750;59.842;17.584;2022-09-09T04:11:55;2.13;;;1.45;;
43142;SDS011;28750;59.842;17.584;2022-09-09T04:14:22;3.33;;;1.50;;
43142;SDS011;28750;59.842;17.584;2022-09-09T04:16:51;2.88;;;1.40;;
43142;SDS011;28750;59.842;17.584;2022-09-09T04:19:18;5.63;;;1.75;;
43142;SDS011;28750;59.842;17.584;2022-09-09T04:21:45;1.48;;;1.38;;
43142;SDS011;28750;59.842;17.584;2022-09-09T04:26:43;2.00;;;1.55;;
43142;SDS011;28750;59.842;17.584;2022-09-09T04:29:12;2.53;;;1.30;;
43142;SDS011;28750;59.842;17.584;2022-09-09T04:31:39;3.20;;;1.48;;
43142;SDS011;28750;59.842;17.584;2022-09-09T04:34:07;2.03;;;1.75;;
43142;SDS011;28750;59.842;17.584;2022-09-09T04:36:35;1.63;;;1.52;;
43142;SDS011;28750;59.842;17.584;2022-09-09T04:39:02;2.17;;;1.60;;
43142;SDS011;28750;59.842;17.584;2022-09-09T04:41:29;1.50;;;1.40;;
43142;SDS011;28750;59.842;17.584;2022-09-09T04:43:56;1.83;;;1.40;;
43142;SDS011;28750;59.842;17.584;2022-09-09T04:46:25;2.55;;;1.45;;
43142;SDS011;28750;59.842;17.584;2022-09-09T04:48:52;2.15;;;1.27;;
43142;SDS011;28750;59.842;17.584;2022-09-09T04:51:19;2.10;;;1.02;;
43142;SDS011;28750;59.842;17.584;2022-09-09T04:53:46;2.35;;;1.30;;
43142;SDS011;28750;59.842;17.584;2022-09-09T04:56:15;2.22;;;1.30;;
43142;SDS011;28750;59.842;17.584;2022-09-09T04:58:43;1.65;;;1.17;;
43142;SDS011;28750;59.842;17.584;2022-09-09T05:01:12;4.38;;;1.20;;
43142;SDS011;28750;59.842;17.584;2022-09-09T05:03:42;5.07;;;1.10;;
43142;SDS011;28750;59.842;17.584;2022-09-09T05:06:14;3.53;;;1.40;;
43142;SDS011;28750;59.842;17.584;2022-09-09T05:08:43;1.20;;;1.10;;
43142;SDS011;28750;59.842;17.584;2022-09-09T05:11:23;4.38;;;1.20;;
43142;SDS011;28750;59.842;17.584;2022-09-09T05:16:19;3.83;;;1.20;;
43142;SDS011;28750;59.842;17.584;2022-09-09T05:18:47;3.55;;;1.77;;
43142;SDS011;28750;59.842;17.584;2022-09-09T05:21:16;5.85;;;1.65;;
43142;SDS011;28750;59.842;17.584;2022-09-09T05:23:44;4.95;;;1.67;;
43142;SDS011;28750;59.842;17.584;2022-09-09T05:26:13;1.02;;;0.93;;
43142;SDS011;28750;59.842;17.584;2022-09-09T05:28:41;5.35;;;1.25;;
43142;SDS011;28750;59.842;17.584;2022-09-09T05:31:08;1.98;;;1.10;;
43142;SDS011;28750;59.842;17.584;2022-09-09T05:33:37;4.10;;;1.20;;
43142;SDS011;28750;59.842;17.584;2022-09-09T05:36:10;4.65;;;1.35;;
43142;SDS011;28750;59.842;17.584;2022-09-09T05:38:39;3.08;;;1.45;;
43142;SDS011;28750;59.842;17.584;2022-09-09T05:41:07;2.05;;;1.45;;
43142;SDS011;28750;59.842;17.584;2022-09-09T05:43:35;4.65;;;1.95;;
43142;SDS011;28750;59.842;17.584;2022-09-09T05:46:03;13.15;;;9.30;;
43142;SDS011;28750;59.842;17.584;2022-09-09T05:48:33;5.20;;;1.30;;
43142;SDS011;28750;59.842;17.584;2022-09-09T05:51:02;5.03;;;1.30;;
43142;SDS011;28750;59.842;17.584;2022-09-09T05:53:30;6.05;;;1.65;;
43142;SDS011;28750;59.842;17.584;2022-09-09T05:56:03;6.72;;;1.25;;
43142;SDS011;28750;59.842;17.584;2022-09-09T05:58:35;2.55;;;1.17;;
43142;SDS011;28750;59.842;17.584;2022-09-09T06:01:10;3.67;;;1.60;;
43142;SDS011;28750;59.842;17.584;2022-09-09T06:03:40;3.03;;;1.10;;
43142;SDS011;28750;59.842;17.584;2022-09-09T06:06:09;4.78;;;1.50;;
43142;SDS011;28750;59.842;17.584;2022-09-09T06:08:38;1.48;;;1.30;;
43142;SDS011;28750;59.842;17.584;2022-09-09T06:11:08;3.10;;;1.50;;
43142;SDS011;28750;59.842;17.584;2022-09-09T06:13:46;5.00;;;1.70;;
43142;SDS011;28750;59.842;17.584;2022-09-09T06:16:17;5.22;;;1.23;;
43142;SDS011;28750;59.842;17.584;2022-09-09T06:18:45;2.78;;;1.50;;
43142;SDS011;28750;59.842;17.584;2022-09-09T06:21:23;1.48;;;1.20;;
43142;SDS011;28750;59.842;17.584;2022-09-09T06:23:52;2.90;;;1.20;;
43142;SDS011;28750;59.842;17.584;2022-09-09T06:26:24;6.45;;;1.25;;
43142;SDS011;28750;59.842;17.584;2022-09-09T06:29:02;4.03;;;1.38;;
43142;SDS011;28750;59.842;17.584;2022-09-09T06:31:30;5.20;;;1.67;;
43142;SDS011;28750;59.842;17.584;2022-09-09T06:33:59;1.85;;;1.30;;
43142;SDS011;28750;59.842;17.584;2022-09-09T06:36:27;7.30;;;1.02;;
43142;SDS011;28750;59.842;17.584;2022-09-09T06:38:56;2.78;;;1.25;;
43142;SDS011;28750;59.842;17.584;2022-09-09T06:41:24;4.75;;;1.08;;
43142;SDS011;28750;59.842;17.584;2022-09-09T06:43:53;3.10;;;1.20;;
43142;SDS011;28750;59.842;17.584;2022-09-09T06:46:25;5.28;;;1.13;;
43142;SDS011;28750;59.842;17.584;2022-09-09T06:48:55;2.03;;;1.17;;
43142;SDS011;28750;59.842;17.584;2022-09-09T06:51:25;1.92;;;1.50;;
43142;SDS011;28750;59.842;17.584;2022-09-09T06:53:56;3.67;;;0.80;;
43142;SDS011;28750;59.842;17.584;2022-09-09T06:56:31;4.40;;;1.20;;
43142;SDS011;28750;59.842;17.584;2022-09-09T06:59:01;2.00;;;1.05;;
43142;SDS011;28750;59.842;17.584;2022-09-09T07:01:31;2.88;;;0.95;;
43142;SDS011;28750;59.842;17.584;2022-09-09T07:04:09;1.23;;;1.05;;
43142;SDS011;28750;59.842;17.584;2022-09-09T07:06:37;3.47;;;0.95;;
43142;SDS011;28750;59.842;17.584;2022-09-09T07:09:06;1.23;;;0.98;;
43142;SDS011;28750;59.842;17.584;2022-09-09T07:11:41;3.35;;;1.23;;
43142;SDS011;28750;59.842;17.584;2022-09-09T07:14:10;1.52;;;1.13;;
43142;SDS011;28750;59.842;17.584;2022-09-09T07:16:39;3.72;;;0.95;;
43142;SDS011;28750;59.842;17.584;2022-09-09T07:19:10;2.72;;;0.82;;
43142;SDS011;28750;59.842;17.584;2022-09-09T07:21:38;3.30;;;1.42;;
43142;SDS011;28750;59.842;17.584;2022-09-09T07:24:05;2.92;;;1.00;;
43142;SDS011;28750;59.842;17.584;2022-09-09T07:26:35;1.70;;;1.00;;
43142;SDS011;28750;59.842;17.584;2022-09-09T07:29:03;4.00;;;1.10;;
43142;SDS011;28750;59.842;17.584;2022-09-09T07:31:34;4.68;;;0.80;;
43142;SDS011;28750;59.842;17.584;2022-09-09T07:34:03;1.35;;;0.98;;
43142;SDS011;28750;59.842;17.584;2022-09-09T07:36:32;3.60;;;2.65;;
43142;SDS011;28750;59.842;17.584;2022-09-09T07:39:05;2.20;;;1.67;;
43142;SDS011;28750;59.842;17.584;2022-09-09T07:41:39;0.93;;;0.80;;
43142;SDS011;28750;59.842;17.584;2022-09-09T07:44:08;0.80;;;0.80;;
43142;SDS011;28750;59.842;17.584;2022-09-09T07:46:40;1.10;;;1.00;;
43142;SDS011;28750;59.842;17.584;2022-09-09T07:49:09;0.63;;;0.60;;
43142;SDS011;28750;59.842;17.584;2022-09-09T07:51:38;2.67;;;0.90;;
43142;SDS011;28750;59.842;17.584;2022-09-09T07:54:07;2.23;;;1.13;;
43142;SDS011;28750;59.842;17.584;2022-09-09T07:56:38;3.20;;;0.70;;
43142;SDS011;28750;59.842;17.584;2022-09-09T07:59:06;1.23;;;0.70;;
43142;SDS011;28750;59.842;17.584;2022-09-09T08:01:36;3.35;;;1.20;;
43142;SDS011;28750;59.842;17.584;2022-09-09T08:04:12;2.35;;;0.82;;
43142;SDS011;28750;59.842;17.584;2022-09-09T08:06:45;1.75;;;0.63;;
43142;SDS011;28750;59.842;17.584;2022-09-09T08:09:17;2.20;;;0.70;;
43142;SDS011;28750;59.842;17.584;2022-09-09T08:11:45;3.50;;;0.75;;
43142;SDS011;28750;59.842;17.584;2022-09-09T08:14:12;2.92;;;1.05;;
43142;SDS011;28750;59.842;17.584;2022-09-09T08:16:41;1.27;;;0.50;;
43142;SDS011;28750;59.842;17.584;2022-09-09T08:19:10;0.82;;;0.63;;
43142;SDS011;28750;59.842;17.584;2022-09-09T08:21:40;1.02;;;0.70;;
43142;SDS011;28750;59.842;17.584;2022-09-09T08:24:09;2.63;;;0.65;;
43142;SDS011;28750;59.842;17.584;2022-09-09T08:26:41;1.60;;;0.80;;
43142;SDS011;28750;59.842;17.584;2022-09-09T08:29:10;1.80;;;0.80;;
43142;SDS011;28750;59.842;17.584;2022-09-09T08:31:39;1.88;;;0.60;;
43142;SDS011;28750;59.842;17.584;2022-09-09T08:34:07;2.97;;;0.80;;
43142;SDS011;28750;59.842;17.584;2022-09-09T08:36:39;3.60;;;0.70;;
43142;SDS011;28750;59.842;17.584;2022-09-09T08:39:11;0.73;;;0.70;;
43142;SDS011;28750;59.842;17.584;2022-09-09T08:44:31;1.10;;;0.50;;
43142;SDS011;28750;59.842;17.584;2022-09-09T08:52:52;2.55;;;0.93;;
43142;SDS011;28750;59.842;17.584;2022-09-09T08:58:02;3.65;;;0.70;;
43142;SDS011;28750;59.842;17.584;2022-09-09T09:12:24;1.88;;;0.65;;
43142;SDS011;28750;59.842;17.584;2022-09-09T09:14:55;1.17;;;0.80;;
43142;SDS011;28750;59.842;17.584;2022-09-09T09:17:24;1.77;;;0.60;;
43142;SDS011;28750;59.842;17.584;2022-09-09T09:19:56;2.83;;;0.90;;
43142;SDS011;28750;59.842;17.584;2022-09-09T09:22:30;1.05;;;0.60;;
43142;SDS011;28750;59.842;17.584;2022-09-09T09:25:09;0.98;;;0.70;;
43142;SDS011;28750;59.842;17.584;2022-09-09T09:27:43;6.00;;;0.85;;
43142;SDS011;28750;59.842;17.584;2022-09-09T09:30:53;2.17;;;0.60;;
43142;SDS011;28750;59.842;17.584;2022-09-09T09:35:56;1.50;;;0.70;;
43142;SDS011;28750;59.842;17.584;2022-09-09T09:38:26;2.67;;;0.70;;
43142;SDS011;28750;59.842;17.584;2022-09-09T09:40:55;1.10;;;0.73;;
43142;SDS011;28750;59.842;17.584;2022-09-09T09:43:34;3.05;;;0.75;;
43142;SDS011;28750;59.842;17.584;2022-09-09T09:46:03;3.70;;;0.50;;
43142;SDS011;28750;59.842;17.584;2022-09-09T09:48:30;0.68;;;0.40;;
43142;SDS011;28750;59.842;17.584;2022-09-09T09:51:02;2.22;;;0.50;;
43142;SDS011;28750;59.842;17.584;2022-09-09T09:53:39;3.08;;;0.70;;
43142;SDS011;28750;59.842;17.584;2022-09-09T09:56:10;2.88;;;0.70;;
43142;SDS011;28750;59.842;17.584;2022-09-09T10:01:22;2.67;;;0.70;;
43142;SDS011;28750;59.842;17.584;2022-09-09T10:03:58;0.55;;;0.50;;
43142;SDS011;28750;59.842;17.584;2022-09-09T10:06:34;1.60;;;0.55;;
43142;SDS011;28750;59.842;17.584;2022-09-09T10:09:27;1.10;;;0.55;;
43142;SDS011;28750;59.842;17.584;2022-09-09T10:23:33;6.93;;;0.70;;
43142;SDS011;28750;59.842;17.584;2022-09-09T10:29:21;2.55;;;0.57;;
43142;SDS011;28750;59.842;17.584;2022-09-09T10:31:52;0.75;;;0.70;;
43142;SDS011;28750;59.842;17.584;2022-09-09T10:34:31;1.95;;;1.05;;
43142;SDS011;28750;59.842;17.584;2022-09-09T10:37:03;2.00;;;0.50;;
43142;SDS011;28750;59.842;17.584;2022-09-09T10:42:14;3.35;;;0.50;;
43142;SDS011;28750;59.842;17.584;2022-09-09T10:47:29;1.13;;;0.55;;
43142;SDS011;28750;59.842;17.584;2022-09-09T10:56:01;1.02;;;0.45;;
43142;SDS011;28750;59.842;17.584;2022-09-09T11:01:25;2.17;;;0.65;;
43142;SDS011;28750;59.842;17.584;2022-09-09T11:03:59;1.95;;;0.60;;
43142;SDS011;28750;59.842;17.584;2022-09-09T11:06:56;1.25;;;0.70;;
43142;SDS011;28750;59.842;17.584;2022-09-09T11:09:26;1.52;;;0.60;;
43142;SDS011;28750;59.842;17.584;2022-09-09T11:11:58;1.52;;;0.50;;
43142;SDS011;28750;59.842;17.584;2022-09-09T11:17:02;0.63;;;0.60;;
43142;SDS011;28750;59.842;17.584;2022-09-09T11:19:36;2.70;;;0.60;;
43142;SDS011;28750;59.842;17.584;2022-09-09T11:25:14;6.40;;;0.90;;
43142;SDS011;28750;59.842;17.584;2022-09-09T11:36:40;1.45;;;0.70;;
43142;SDS011;28750;59.842;17.584;2022-09-09T11:41:55;1.10;;;0.70;;
43142;SDS011;28750;59.842;17.584;2022-09-09T11:44:43;2.40;;;0.90;;
43142;SDS011;28750;59.842;17.584;2022-09-09T11:50:08;1.65;;;0.60;;
43142;SDS011;28750;59.842;17.584;2022-09-09T11:52:44;1.58;;;0.50;;
43142;SDS011;28750;59.842;17.584;2022-09-09T11:55:32;2.00;;;0.60;;
43142;SDS011;28750;59.842;17.584;2022-09-09T11:58:05;0.57;;;0.57;;
43142;SDS011;28750;59.842;17.584;2022-09-09T12:00:37;1.63;;;0.47;;
43142;SDS011;28750;59.842;17.584;2022-09-09T12:11:48;1.25;;;0.75;;
43142;SDS011;28750;59.842;17.584;2022-09-09T12:14:23;1.90;;;0.80;;
43142;SDS011;28750;59.842;17.584;2022-09-09T12:25:26;1.80;;;0.60;;
43142;SDS011;28750;59.842;17.584;2022-09-09T12:28:09;3.13;;;0.60;;
43142;SDS011;28750;59.842;17.584;2022-09-09T12:30:43;5.55;;;0.93;;
43142;SDS011;28750;59.842;17.584;2022-09-09T12:33:22;2.78;;;0.65;;
43142;SDS011;28750;59.842;17.584;2022-09-09T12:35:54;0.60;;;0.60;;
43142;SDS011;28750;59.842;17.584;2022-09-09T12:38:32;2.42;;;0.90;;
43142;SDS011;28750;59.842;17.584;2022-09-09T12:41:01;1.55;;;0.70;;
43142;SDS011;28750;59.842;17.584;2022-09-09T12:43:28;2.33;;;0.90;;
43142;SDS011;28750;59.842;17.584;2022-09-09T12:45:56;1.35;;;0.77;;
43142;SDS011;28750;59.842;17.584;2022-09-09T12:48:39;2.50;;;0.55;;
43142;SDS011;28750;59.842;17.584;2022-09-09T12:51:17;1.65;;;0.60;;
43142;SDS011;28750;59.842;17.584;2022-09-09T12:54:06;3.08;;;0.80;;
43142;SDS011;28750;59.842;17.584;2022-09-09T12:56:40;2.20;;;0.70;;
43142;SDS011;28750;59.842;17.584;2022-09-09T12:59:26;1.40;;;0.50;;
43142;SDS011;28750;59.842;17.584;2022-09-09T13:02:02;0.63;;;0.45;;
43142;SDS011;28750;59.842;17.584;2022-09-09T13:04:38;2.22;;;0.80;;
43142;SDS011;28750;59.842;17.584;2022-09-09T13:07:05;1.55;;;0.60;;
43142;SDS011;28750;59.842;17.584;2022-09-09T13:09:36;4.00;;;0.70;;
43142;SDS011;28750;59.842;17.584;2022-09-09T13:12:04;0.88;;;0.52;;
43142;SDS011;28750;59.842;17.584;2022-09-09T13:14:33;1.55;;;0.80;;
43142;SDS011;28750;59.842;17.584;2022-09-09T13:17:04;2.13;;;0.68;;
43142;SDS011;28750;59.842;17.584;2022-09-09T13:19:36;4.50;;;1.20;;
43142;SDS011;28750;59.842;17.584;2022-09-09T13:22:12;3.05;;;0.82;;
43142;SDS011;28750;59.842;17.584;2022-09-09T13:24:40;0.50;;;0.50;;
43142;SDS011;28750;59.842;17.584;2022-09-09T13:30:30;1.45;;;0.50;;
43142;SDS011;28750;59.842;17.584;2022-09-09T13:33:05;1.73;;;0.75;;
43142;SDS011;28750;59.842;17.584;2022-09-09T13:35:35;2.38;;;0.90;;
43142;SDS011;28750;59.842;17.584;2022-09-09T13:38:13;3.50;;;0.90;;
43142;SDS011;28750;59.842;17.584;2022-09-09T13:40:58;4.57;;;0.77;;
43142;SDS011;28750;59.842;17.584;2022-09-09T13:43:28;3.38;;;0.60;;
43142;SDS011;28750;59.842;17.584;2022-09-09T13:46:25;2.65;;;0.60;;
43142;SDS011;28750;59.842;17.584;2022-09-09T13:51:48;0.98;;;0.70;;
43142;SDS011;28750;59.842;17.584;2022-09-09T13:54:19;1.48;;;0.80;;
43142;SDS011;28750;59.842;17.584;2022-09-09T13:56:47;1.58;;;0.80;;
43142;SDS011;28750;59.842;17.584;2022-09-09T13:59:16;2.08;;;0.70;;
43142;SDS011;28750;59.842;17.584;2022-09-09T14:01:46;3.35;;;0.73;;
43142;SDS011;28750;59.842;17.584;2022-09-09T14:04:14;1.10;;;0.50;;
43142;SDS011;28750;59.842;17.584;2022-09-09T14:06:42;4.53;;;0.93;;
43142;SDS011;28750;59.842;17.584;2022-09-09T14:09:12;2.60;;;0.80;;
43142;SDS011;28750;59.842;17.584;2022-09-09T14:11:41;1.42;;;0.60;;
43142;SDS011;28750;59.842;17.584;2022-09-09T14:14:09;0.95;;;0.80;;
43142;SDS011;28750;59.842;17.584;2022-09-09T14:16:36;3.40;;;0.70;;
43142;SDS011;28750;59.842;17.584;2022-09-09T14:19:03;1.02;;;0.75;;
43142;SDS011;28750;59.842;17.584;2022-09-09T14:21:30;0.95;;;0.75;;
43142;SDS011;28750;59.842;17.584;2022-09-09T14:23:57;0.57;;;0.55;;
43142;SDS011;28750;59.842;17.584;2022-09-09T14:26:24;1.55;;;0.70;;
43142;SDS011;28750;59.842;17.584;2022-09-09T14:28:53;2.05;;;0.90;;
43142;SDS011;28750;59.842;17.584;2022-09-09T14:31:21;1.42;;;1.05;;
43142;SDS011;28750;59.842;17.584;2022-09-09T14:33:49;1.45;;;0.90;;
43142;SDS011;28750;59.842;17.584;2022-09-09T14:36:17;3.00;;;0.60;;
43142;SDS011;28750;59.842;17.584;2022-09-09T14:38:45;1.70;;;0.80;;
43142;SDS011;28750;59.842;17.584;2022-09-09T14:41:13;2.67;;;0.95;;
43142;SDS011;28750;59.842;17.584;2022-09-09T14:43:43;2.47;;;0.70;;
43142;SDS011;28750;59.842;17.584;2022-09-09T14:46:11;3.50;;;1.05;;
43142;SDS011;28750;59.842;17.584;2022-09-09T14:48:40;3.05;;;0.80;;
43142;SDS011;28750;59.842;17.584;2022-09-09T14:51:12;2.20;;;0.90;;
43142;SDS011;28750;59.842;17.584;2022-09-09T14:53:50;0.80;;;0.70;;
43142;SDS011;28750;59.842;17.584;2022-09-09T14:56:20;1.27;;;0.80;;
43142;SDS011;28750;59.842;17.584;2022-09-09T14:58:49;2.70;;;0.98;;
43142;SDS011;28750;59.842;17.584;2022-09-09T15:01:19;1.10;;;0.80;;
43142;SDS011;28750;59.842;17.584;2022-09-09T15:03:54;3.63;;;1.05;;
43142;SDS011;28750;59.842;17.584;2022-09-09T15:06:23;1.95;;;0.70;;
43142;SDS011;28750;59.842;17.584;2022-09-09T15:08:52;0.70;;;0.70;;
43142;SDS011;28750;59.842;17.584;2022-09-09T15:13:50;2.55;;;0.77;;
43142;SDS011;28750;59.842;17.584;2022-09-09T15:16:19;1.10;;;0.90;;
43142;SDS011;28750;59.842;17.584;2022-09-09T15:18:50;1.08;;;0.82;;
43142;SDS011;28750;59.842;17.584;2022-09-09T15:21:20;1.00;;;0.73;;
43142;SDS011;28750;59.842;17.584;2022-09-09T15:23:49;3.20;;;0.82;;
43142;SDS011;28750;59.842;17.584;2022-09-09T15:26:17;3.35;;;0.90;;
43142;SDS011;28750;59.842;17.584;2022-09-09T15:28:45;1.00;;;0.88;;
43142;SDS011;28750;59.842;17.584;2022-09-09T15:31:14;3.00;;;0.88;;
43142;SDS011;28750;59.842;17.584;2022-09-09T15:33:53;6.20;;;1.02;;
43142;SDS011;28750;59.842;17.584;2022-09-09T15:36:26;4.07;;;1.13;;
43142;SDS011;28750;59.842;17.584;2022-09-09T15:38:58;1.83;;;0.88;;
43142;SDS011;28750;59.842;17.584;2022-09-09T15:41:27;1.10;;;1.02;;
43142;SDS011;28750;59.842;17.584;2022-09-09T15:43:55;2.25;;;1.00;;
43142;SDS011;28750;59.842;17.584;2022-09-09T15:48:55;2.28;;;1.02;;
43142;SDS011;28750;59.842;17.584;2022-09-09T15:51:25;4.78;;;1.48;;
43142;SDS011;28750;59.842;17.584;2022-09-09T15:53:56;2.58;;;1.35;;
43142;SDS011;28750;59.842;17.584;2022-09-09T15:56:25;1.17;;;0.82;;
43142;SDS011;28750;59.842;17.584;2022-09-09T15:58:55;1.15;;;0.90;;
43142;SDS011;28750;59.842;17.584;2022-09-09T16:01:24;5.65;;;1.10;;
43142;SDS011;28750;59.842;17.584;2022-09-09T16:03:52;2.15;;;1.25;;
43142;SDS011;28750;59.842;17.584;2022-09-09T16:06:20;2.67;;;1.20;;
43142;SDS011;28750;59.842;17.584;2022-09-09T16:08:50;1.35;;;1.00;;
43142;SDS011;28750;59.842;17.584;2022-09-09T16:11:20;3.20;;;1.70;;
43142;SDS011;28750;59.842;17.584;2022-09-09T16:13:48;1.65;;;1.10;;
43142;SDS011;28750;59.842;17.584;2022-09-09T16:16:19;2.97;;;1.20;;
43142;SDS011;28750;59.842;17.584;2022-09-09T16:19:08;1.35;;;1.00;;
43142;SDS011;28750;59.842;17.584;2022-09-09T16:21:40;1.98;;;1.33;;
43142;SDS011;28750;59.842;17.584;2022-09-09T16:24:10;3.10;;;0.93;;
43142;SDS011;28750;59.842;17.584;2022-09-09T16:26:40;2.53;;;0.98;;
43142;SDS011;28750;59.842;17.584;2022-09-09T16:29:10;2.13;;;1.08;;
43142;SDS011;28750;59.842;17.584;2022-09-09T16:31:39;4.90;;;1.38;;
43142;SDS011;28750;59.842;17.584;2022-09-09T16:34:07;1.55;;;1.02;;
43142;SDS011;28750;59.842;17.584;2022-09-09T16:36:35;2.75;;;1.05;;
43142;SDS011;28750;59.842;17.584;2022-09-09T16:39:08;1.50;;;1.02;;
43142;SDS011;28750;59.842;17.584;2022-09-09T16:41:42;1.65;;;1.10;;
43142;SDS011;28750;59.842;17.584;2022-09-09T16:44:11;9.98;;;1.23;;
43142;SDS011;28750;59.842;17.584;2022-09-09T16:46:40;3.53;;;1.00;;
43142;SDS011;28750;59.842;17.584;2022-09-09T16:49:09;4.22;;;1.02;;
43142;SDS011;28750;59.842;17.584;2022-09-09T16:51:42;2.67;;;1.27;;
43142;SDS011;28750;59.842;17.584;2022-09-09T16:56:41;1.48;;;0.80;;
43142;SDS011;28750;59.842;17.584;2022-09-09T16:59:10;1.10;;;1.00;;
43142;SDS011;28750;59.842;17.584;2022-09-09T17:01:42;2.22;;;1.02;;
43142;SDS011;28750;59.842;17.584;2022-09-09T17:04:14;1.83;;;1.00;;
43142;SDS011;28750;59.842;17.584;2022-09-09T17:06:49;2.15;;;1.10;;
43142;SDS011;28750;59.842;17.584;2022-09-09T17:09:18;3.17;;;1.25;;
43142;SDS011;28750;59.842;17.584;2022-09-09T17:11:46;1.38;;;1.05;;
43142;SDS011;28750;59.842;17.584;2022-09-09T17:14:16;1.05;;;0.98;;
43142;SDS011;28750;59.842;17.584;2022-09-09T17:16:44;3.40;;;1.20;;
43142;SDS011;28750;59.842;17.584;2022-09-09T17:19:12;1.45;;;1.05;;
43142;SDS011;28750;59.842;17.584;2022-09-09T17:21:39;1.42;;;1.20;;
43142;SDS011;28750;59.842;17.584;2022-09-09T17:24:07;2.53;;;1.20;;
43142;SDS011;28750;59.842;17.584;2022-09-09T17:26:34;1.67;;;1.23;;